sensor_id;sensor_type;location;lat;lon;timestamp;P1;durP1;ratioP1;P2;durP2;ratioP2
30888;SDS011;51092;50.874;7.024;2022-09-27T00:00:56;19.48;;;9.90;;
30888;SDS011;51092;50.874;7.024;2022-09-27T00:01:58;14.20;;;8.57;;
30888;SDS011;51092;50.874;7.024;2022-09-27T00:03:01;14.65;;;6.78;;
30888;SDS011;51092;50.874;7.024;2022-09-27T00:04:03;15.55;;;8.10;;
30888;SDS011;51092;50.874;7.024;2022-09-27T00:05:06;17.02;;;9.80;;
30888;SDS011;51092;50.874;7.024;2022-09-27T00:06:10;9.75;;;7.70;;
30888;SDS011;51092;50.874;7.024;2022-09-27T00:07:15;15.68;;;8.52;;
30888;SDS011;51092;50.874;7.024;2022-09-27T00:08:18;18.73;;;8.30;;
30888;SDS011;51092;50.874;7.024;2022-09-27T00:09:20;15.73;;;8.05;;
30888;SDS011;51092;50.874;7.024;2022-09-27T00:10:22;18.05;;;8.80;;
30888;SDS011;51092;50.874;7.024;2022-09-27T00:11:26;15.82;;;6.60;;
30888;SDS011;51092;50.874;7.024;2022-09-27T00:12:29;15.77;;;7.53;;
30888;SDS011;51092;50.874;7.024;2022-09-27T00:13:32;14.50;;;6.90;;
30888;SDS011;51092;50.874;7.024;2022-09-27T00:14:34;15.73;;;6.38;;
30888;SDS011;51092;50.874;7.024;2022-09-27T00:15:36;17.58;;;6.32;;
30888;SDS011;51092;50.874;7.024;2022-09-27T00:16:38;11.00;;;5.50;;
30888;SDS011;51092;50.874;7.024;2022-09-27T00:17:42;13.35;;;6.70;;
30888;SDS011;51092;50.874;7.024;2022-09-27T00:18:43;14.10;;;6.68;;
30888;SDS011;51092;50.874;7.024;2022-09-27T00:19:46;14.25;;;7.25;;
30888;SDS011;51092;50.874;7.024;2022-09-27T00:20:47;15.13;;;6.53;;
30888;SDS011;51092;50.874;7.024;2022-09-27T00:21:50;17.00;;;7.28;;
30888;SDS011;51092;50.874;7.024;2022-09-27T00:22:53;16.08;;;6.03;;
30888;SDS011;51092;50.874;7.024;2022-09-27T00:23:56;16.10;;;7.30;;
30888;SDS011;51092;50.874;7.024;2022-09-27T00:25:00;12.18;;;6.45;;
30888;SDS011;51092;50.874;7.024;2022-09-27T00:26:01;13.63;;;6.30;;
30888;SDS011;51092;50.874;7.024;2022-09-27T00:27:07;8.35;;;4.93;;
30888;SDS011;51092;50.874;7.024;2022-09-27T00:28:08;13.23;;;6.25;;
30888;SDS011;51092;50.874;7.024;2022-09-27T00:29:12;9.57;;;5.97;;
30888;SDS011;51092;50.874;7.024;2022-09-27T00:30:15;12.88;;;6.95;;
30888;SDS011;51092;50.874;7.024;2022-09-27T00:31:17;13.73;;;6.00;;
30888;SDS011;51092;50.874;7.024;2022-09-27T00:32:21;15.25;;;6.50;;
30888;SDS011;51092;50.874;7.024;2022-09-27T00:33:23;17.13;;;6.60;;
30888;SDS011;51092;50.874;7.024;2022-09-27T00:34:28;9.60;;;5.57;;
30888;SDS011;51092;50.874;7.024;2022-09-27T00:35:32;15.60;;;6.38;;
30888;SDS011;51092;50.874;7.024;2022-09-27T00:36:36;11.00;;;6.30;;
30888;SDS011;51092;50.874;7.024;2022-09-27T00:37:39;16.40;;;6.70;;
30888;SDS011;51092;50.874;7.024;2022-09-27T00:38:41;17.00;;;7.82;;
30888;SDS011;51092;50.874;7.024;2022-09-27T00:39:45;15.77;;;6.97;;
30888;SDS011;51092;50.874;7.024;2022-09-27T00:40:46;14.63;;;7.82;;
30888;SDS011;51092;50.874;7.024;2022-09-27T00:41:49;12.50;;;6.32;;
30888;SDS011;51092;50.874;7.024;2022-09-27T00:42:51;18.85;;;7.00;;
30888;SDS011;51092;50.874;7.024;2022-09-27T00:43:55;16.35;;;7.57;;
30888;SDS011;51092;50.874;7.024;2022-09-27T00:45:00;14.25;;;7.40;;
30888;SDS011;51092;50.874;7.024;2022-09-27T00:46:08;18.65;;;7.82;;
30888;SDS011;51092;50.874;7.024;2022-09-27T00:47:12;16.92;;;7.00;;
30888;SDS011;51092;50.874;7.024;2022-09-27T00:48:28;12.02;;;6.55;;
30888;SDS011;51092;50.874;7.024;2022-09-27T00:49:33;15.18;;;7.00;;
30888;SDS011;51092;50.874;7.024;2022-09-27T00:50:39;9.70;;;5.93;;
30888;SDS011;51092;50.874;7.024;2022-09-27T00:51:47;9.05;;;6.85;;
30888;SDS011;51092;50.874;7.024;2022-09-27T00:53:03;17.75;;;8.02;;
30888;SDS011;51092;50.874;7.024;2022-09-27T00:54:12;12.98;;;7.45;;
30888;SDS011;51092;50.874;7.024;2022-09-27T00:55:18;15.45;;;7.53;;
30888;SDS011;51092;50.874;7.024;2022-09-27T00:56:24;15.90;;;7.50;;
30888;SDS011;51092;50.874;7.024;2022-09-27T00:57:30;15.07;;;8.27;;
30888;SDS011;51092;50.874;7.024;2022-09-27T00:58:34;20.63;;;8.80;;
30888;SDS011;51092;50.874;7.024;2022-09-27T00:59:42;15.48;;;6.90;;
30888;SDS011;51092;50.874;7.024;2022-09-27T01:00:47;15.30;;;7.50;;
30888;SDS011;51092;50.874;7.024;2022-09-27T01:01:53;19.85;;;9.70;;
30888;SDS011;51092;50.874;7.024;2022-09-27T01:02:56;16.38;;;7.30;;
30888;SDS011;51092;50.874;7.024;2022-09-27T01:04:00;16.40;;;9.13;;
30888;SDS011;51092;50.874;7.024;2022-09-27T01:05:07;20.08;;;9.63;;
30888;SDS011;51092;50.874;7.024;2022-09-27T01:06:11;16.40;;;8.93;;
30888;SDS011;51092;50.874;7.024;2022-09-27T01:07:14;20.00;;;11.25;;
30888;SDS011;51092;50.874;7.024;2022-09-27T01:08:17;16.75;;;9.82;;
30888;SDS011;51092;50.874;7.024;2022-09-27T01:09:19;13.63;;;8.77;;
30888;SDS011;51092;50.874;7.024;2022-09-27T01:10:23;14.85;;;9.77;;
30888;SDS011;51092;50.874;7.024;2022-09-27T01:11:33;13.82;;;10.00;;
30888;SDS011;51092;50.874;7.024;2022-09-27T01:12:41;14.75;;;8.07;;
30888;SDS011;51092;50.874;7.024;2022-09-27T01:13:57;18.45;;;8.95;;
30888;SDS011;51092;50.874;7.024;2022-09-27T01:15:12;19.95;;;10.00;;
30888;SDS011;51092;50.874;7.024;2022-09-27T01:16:20;20.25;;;10.93;;
30888;SDS011;51092;50.874;7.024;2022-09-27T01:17:32;18.52;;;9.40;;
30888;SDS011;51092;50.874;7.024;2022-09-27T01:18:46;15.40;;;10.63;;
30888;SDS011;51092;50.874;7.024;2022-09-27T01:21:45;15.68;;;9.35;;
30888;SDS011;51092;50.874;7.024;2022-09-27T01:22:55;13.68;;;6.32;;
30888;SDS011;51092;50.874;7.024;2022-09-27T01:24:24;8.18;;;5.47;;
30888;SDS011;51092;50.874;7.024;2022-09-27T01:25:52;12.13;;;5.85;;
30888;SDS011;51092;50.874;7.024;2022-09-27T01:27:15;16.45;;;6.60;;
30888;SDS011;51092;50.874;7.024;2022-09-27T01:28:47;8.43;;;5.38;;
30888;SDS011;51092;50.874;7.024;2022-09-27T01:30:09;11.50;;;5.22;;
30888;SDS011;51092;50.874;7.024;2022-09-27T01:31:18;15.15;;;5.55;;
30888;SDS011;51092;50.874;7.024;2022-09-27T01:32:27;17.02;;;7.30;;
30888;SDS011;51092;50.874;7.024;2022-09-27T01:33:37;12.35;;;5.25;;
30888;SDS011;51092;50.874;7.024;2022-09-27T01:34:46;10.43;;;5.32;;
30888;SDS011;51092;50.874;7.024;2022-09-27T01:36:06;8.55;;;5.00;;
30888;SDS011;51092;50.874;7.024;2022-09-27T01:37:21;13.98;;;5.40;;
30888;SDS011;51092;50.874;7.024;2022-09-27T01:38:29;11.00;;;5.70;;
30888;SDS011;51092;50.874;7.024;2022-09-27T01:39:42;8.45;;;4.95;;
30888;SDS011;51092;50.874;7.024;2022-09-27T01:40:52;15.43;;;5.93;;
30888;SDS011;51092;50.874;7.024;2022-09-27T01:42:06;11.88;;;5.60;;
30888;SDS011;51092;50.874;7.024;2022-09-27T01:43:14;14.85;;;6.57;;
30888;SDS011;51092;50.874;7.024;2022-09-27T01:44:19;15.73;;;5.53;;
30888;SDS011;51092;50.874;7.024;2022-09-27T01:45:30;17.07;;;5.57;;
30888;SDS011;51092;50.874;7.024;2022-09-27T01:46:36;13.32;;;6.25;;
30888;SDS011;51092;50.874;7.024;2022-09-27T01:47:43;13.25;;;6.50;;
30888;SDS011;51092;50.874;7.024;2022-09-27T01:48:49;13.77;;;6.07;;
30888;SDS011;51092;50.874;7.024;2022-09-27T01:49:54;14.48;;;7.13;;
30888;SDS011;51092;50.874;7.024;2022-09-27T01:51:01;11.35;;;6.97;;
30888;SDS011;51092;50.874;7.024;2022-09-27T01:52:08;13.25;;;6.72;;
30888;SDS011;51092;50.874;7.024;2022-09-27T01:53:14;11.02;;;6.22;;
30888;SDS011;51092;50.874;7.024;2022-09-27T01:54:21;13.85;;;7.60;;
30888;SDS011;51092;50.874;7.024;2022-09-27T01:55:27;13.25;;;7.45;;
30888;SDS011;51092;50.874;7.024;2022-09-27T01:56:36;16.88;;;7.65;;
30888;SDS011;51092;50.874;7.024;2022-09-27T01:57:42;14.75;;;8.18;;
30888;SDS011;51092;50.874;7.024;2022-09-27T01:58:51;10.35;;;8.10;;
30888;SDS011;51092;50.874;7.024;2022-09-27T01:59:58;11.00;;;6.45;;
30888;SDS011;51092;50.874;7.024;2022-09-27T02:01:05;12.07;;;7.78;;
30888;SDS011;51092;50.874;7.024;2022-09-27T02:02:09;10.65;;;7.88;;
30888;SDS011;51092;50.874;7.024;2022-09-27T02:03:13;13.18;;;8.82;;
30888;SDS011;51092;50.874;7.024;2022-09-27T02:04:20;16.73;;;9.63;;
30888;SDS011;51092;50.874;7.024;2022-09-27T02:05:28;17.33;;;9.73;;
30888;SDS011;51092;50.874;7.024;2022-09-27T02:06:34;16.50;;;10.55;;
30888;SDS011;51092;50.874;7.024;2022-09-27T02:07:40;12.57;;;9.35;;
30888;SDS011;51092;50.874;7.024;2022-09-27T02:08:47;17.77;;;11.70;;
30888;SDS011;51092;50.874;7.024;2022-09-27T02:09:54;19.10;;;11.35;;
30888;SDS011;51092;50.874;7.024;2022-09-27T02:10:59;21.95;;;12.05;;
30888;SDS011;51092;50.874;7.024;2022-09-27T02:12:07;19.27;;;12.68;;
30888;SDS011;51092;50.874;7.024;2022-09-27T02:13:14;23.05;;;11.68;;
30888;SDS011;51092;50.874;7.024;2022-09-27T02:14:23;26.40;;;12.32;;
30888;SDS011;51092;50.874;7.024;2022-09-27T02:15:28;18.83;;;12.82;;
30888;SDS011;51092;50.874;7.024;2022-09-27T02:16:41;21.05;;;12.57;;
30888;SDS011;51092;50.874;7.024;2022-09-27T02:17:50;18.50;;;12.57;;
30888;SDS011;51092;50.874;7.024;2022-09-27T02:19:00;20.83;;;13.05;;
30888;SDS011;51092;50.874;7.024;2022-09-27T02:20:10;25.77;;;13.98;;
30888;SDS011;51092;50.874;7.024;2022-09-27T02:21:16;21.73;;;14.18;;
30888;SDS011;51092;50.874;7.024;2022-09-27T02:22:22;20.48;;;13.52;;
30888;SDS011;51092;50.874;7.024;2022-09-27T02:23:34;23.27;;;12.98;;
30888;SDS011;51092;50.874;7.024;2022-09-27T02:24:40;13.98;;;10.65;;
30888;SDS011;51092;50.874;7.024;2022-09-27T02:25:48;18.85;;;11.68;;
30888;SDS011;51092;50.874;7.024;2022-09-27T02:26:58;21.90;;;11.18;;
30888;SDS011;51092;50.874;7.024;2022-09-27T02:28:09;28.27;;;12.45;;
30888;SDS011;51092;50.874;7.024;2022-09-27T02:29:19;18.30;;;11.55;;
30888;SDS011;51092;50.874;7.024;2022-09-27T02:30:27;22.15;;;11.73;;
30888;SDS011;51092;50.874;7.024;2022-09-27T02:31:29;24.10;;;12.48;;
30888;SDS011;51092;50.874;7.024;2022-09-27T02:32:32;15.60;;;10.85;;
30888;SDS011;51092;50.874;7.024;2022-09-27T02:33:36;22.35;;;12.85;;
30888;SDS011;51092;50.874;7.024;2022-09-27T02:34:42;21.27;;;11.43;;
30888;SDS011;51092;50.874;7.024;2022-09-27T02:35:45;18.58;;;11.27;;
30888;SDS011;51092;50.874;7.024;2022-09-27T02:36:47;20.55;;;11.65;;
30888;SDS011;51092;50.874;7.024;2022-09-27T02:37:53;15.23;;;10.80;;
30888;SDS011;51092;50.874;7.024;2022-09-27T02:38:55;23.42;;;13.15;;
30888;SDS011;51092;50.874;7.024;2022-09-27T02:39:58;19.83;;;12.75;;
30888;SDS011;51092;50.874;7.024;2022-09-27T02:41:00;14.13;;;10.93;;
30888;SDS011;51092;50.874;7.024;2022-09-27T02:42:03;12.77;;;9.70;;
30888;SDS011;51092;50.874;7.024;2022-09-27T02:43:06;18.15;;;11.77;;
30888;SDS011;51092;50.874;7.024;2022-09-27T02:44:09;20.67;;;11.85;;
30888;SDS011;51092;50.874;7.024;2022-09-27T02:45:13;16.10;;;10.75;;
30888;SDS011;51092;50.874;7.024;2022-09-27T02:46:22;18.55;;;10.75;;
30888;SDS011;51092;50.874;7.024;2022-09-27T02:47:42;19.08;;;12.77;;
30888;SDS011;51092;50.874;7.024;2022-09-27T02:50:12;14.13;;;9.43;;
30888;SDS011;51092;50.874;7.024;2022-09-27T02:51:31;17.90;;;10.63;;
30888;SDS011;51092;50.874;7.024;2022-09-27T02:52:48;24.50;;;11.93;;
30888;SDS011;51092;50.874;7.024;2022-09-27T02:54:03;20.27;;;11.48;;
30888;SDS011;51092;50.874;7.024;2022-09-27T02:55:17;23.98;;;13.18;;
30888;SDS011;51092;50.874;7.024;2022-09-27T02:56:24;22.05;;;11.13;;
30888;SDS011;51092;50.874;7.024;2022-09-27T02:57:33;15.65;;;12.00;;
30888;SDS011;51092;50.874;7.024;2022-09-27T02:58:45;16.77;;;10.93;;
30888;SDS011;51092;50.874;7.024;2022-09-27T02:59:56;13.77;;;10.70;;
30888;SDS011;51092;50.874;7.024;2022-09-27T03:01:05;24.70;;;11.40;;
30888;SDS011;51092;50.874;7.024;2022-09-27T03:02:12;23.05;;;11.70;;
30888;SDS011;51092;50.874;7.024;2022-09-27T03:03:24;17.80;;;10.82;;
30888;SDS011;51092;50.874;7.024;2022-09-27T03:04:31;11.85;;;9.30;;
30888;SDS011;51092;50.874;7.024;2022-09-27T03:05:39;12.75;;;8.85;;
30888;SDS011;51092;50.874;7.024;2022-09-27T03:06:44;16.17;;;9.65;;
30888;SDS011;51092;50.874;7.024;2022-09-27T03:07:48;15.55;;;8.50;;
30888;SDS011;51092;50.874;7.024;2022-09-27T03:08:50;13.88;;;10.20;;
30888;SDS011;51092;50.874;7.024;2022-09-27T03:09:53;14.05;;;8.80;;
30888;SDS011;51092;50.874;7.024;2022-09-27T03:10:55;14.00;;;8.80;;
30888;SDS011;51092;50.874;7.024;2022-09-27T03:11:57;12.82;;;9.48;;
30888;SDS011;51092;50.874;7.024;2022-09-27T03:12:59;17.27;;;9.82;;
30888;SDS011;51092;50.874;7.024;2022-09-27T03:14:02;13.55;;;9.45;;
30888;SDS011;51092;50.874;7.024;2022-09-27T03:15:04;13.35;;;8.05;;
30888;SDS011;51092;50.874;7.024;2022-09-27T03:16:07;11.70;;;7.97;;
30888;SDS011;51092;50.874;7.024;2022-09-27T03:17:09;10.13;;;7.78;;
30888;SDS011;51092;50.874;7.024;2022-09-27T03:18:11;15.23;;;8.75;;
30888;SDS011;51092;50.874;7.024;2022-09-27T03:19:14;9.80;;;7.35;;
30888;SDS011;51092;50.874;7.024;2022-09-27T03:20:17;13.57;;;7.80;;
30888;SDS011;51092;50.874;7.024;2022-09-27T03:21:18;10.68;;;7.93;;
30888;SDS011;51092;50.874;7.024;2022-09-27T03:22:21;15.05;;;8.77;;
30888;SDS011;51092;50.874;7.024;2022-09-27T03:23:23;16.25;;;8.27;;
30888;SDS011;51092;50.874;7.024;2022-09-27T03:24:26;12.30;;;7.65;;
30888;SDS011;51092;50.874;7.024;2022-09-27T03:25:27;13.57;;;7.38;;
30888;SDS011;51092;50.874;7.024;2022-09-27T03:26:31;14.18;;;7.90;;
30888;SDS011;51092;50.874;7.024;2022-09-27T03:27:32;10.98;;;7.68;;
30888;SDS011;51092;50.874;7.024;2022-09-27T03:28:35;9.13;;;6.63;;
30888;SDS011;51092;50.874;7.024;2022-09-27T03:29:36;10.93;;;6.57;;
30888;SDS011;51092;50.874;7.024;2022-09-27T03:30:40;8.70;;;7.75;;
30888;SDS011;51092;50.874;7.024;2022-09-27T03:31:42;12.18;;;7.82;;
30888;SDS011;51092;50.874;7.024;2022-09-27T03:32:45;11.00;;;6.85;;
30888;SDS011;51092;50.874;7.024;2022-09-27T03:33:46;7.90;;;6.63;;
30888;SDS011;51092;50.874;7.024;2022-09-27T03:34:51;9.00;;;5.53;;
30888;SDS011;51092;50.874;7.024;2022-09-27T03:35:55;9.75;;;5.65;;
30888;SDS011;51092;50.874;7.024;2022-09-27T03:36:58;9.27;;;6.22;;
30888;SDS011;51092;50.874;7.024;2022-09-27T03:38:00;7.93;;;5.15;;
30888;SDS011;51092;50.874;7.024;2022-09-27T03:39:02;8.52;;;4.90;;
30888;SDS011;51092;50.874;7.024;2022-09-27T03:40:05;5.82;;;4.25;;
30888;SDS011;51092;50.874;7.024;2022-09-27T03:41:08;8.43;;;5.15;;
30888;SDS011;51092;50.874;7.024;2022-09-27T03:42:11;9.10;;;4.55;;
30888;SDS011;51092;50.874;7.024;2022-09-27T03:43:12;6.05;;;4.55;;
30888;SDS011;51092;50.874;7.024;2022-09-27T03:44:15;7.07;;;4.18;;
30888;SDS011;51092;50.874;7.024;2022-09-27T03:45:17;6.68;;;3.88;;
30888;SDS011;51092;50.874;7.024;2022-09-27T03:46:19;8.82;;;4.18;;
30888;SDS011;51092;50.874;7.024;2022-09-27T03:47:20;5.53;;;3.50;;
30888;SDS011;51092;50.874;7.024;2022-09-27T03:48:22;12.25;;;5.38;;
30888;SDS011;51092;50.874;7.024;2022-09-27T03:49:23;7.80;;;3.90;;
30888;SDS011;51092;50.874;7.024;2022-09-27T03:50:28;11.52;;;4.13;;
30888;SDS011;51092;50.874;7.024;2022-09-27T03:51:29;9.23;;;4.30;;
30888;SDS011;51092;50.874;7.024;2022-09-27T03:52:32;7.57;;;4.55;;
30888;SDS011;51092;50.874;7.024;2022-09-27T03:53:34;9.45;;;4.95;;
30888;SDS011;51092;50.874;7.024;2022-09-27T03:54:37;10.82;;;6.07;;
30888;SDS011;51092;50.874;7.024;2022-09-27T03:55:38;8.68;;;5.40;;
30888;SDS011;51092;50.874;7.024;2022-09-27T03:56:41;10.25;;;6.20;;
30888;SDS011;51092;50.874;7.024;2022-09-27T03:57:43;9.35;;;6.43;;
30888;SDS011;51092;50.874;7.024;2022-09-27T03:58:47;9.63;;;5.88;;
30888;SDS011;51092;50.874;7.024;2022-09-27T03:59:48;9.65;;;5.55;;
30888;SDS011;51092;50.874;7.024;2022-09-27T04:00:51;9.75;;;5.25;;
30888;SDS011;51092;50.874;7.024;2022-09-27T04:01:53;10.10;;;5.60;;
30888;SDS011;51092;50.874;7.024;2022-09-27T04:02:55;6.72;;;4.85;;
30888;SDS011;51092;50.874;7.024;2022-09-27T04:03:57;8.75;;;6.35;;
30888;SDS011;51092;50.874;7.024;2022-09-27T04:05:00;12.23;;;6.18;;
30888;SDS011;51092;50.874;7.024;2022-09-27T04:06:03;6.90;;;6.22;;
30888;SDS011;51092;50.874;7.024;2022-09-27T04:07:06;15.27;;;6.53;;
30888;SDS011;51092;50.874;7.024;2022-09-27T04:08:09;14.57;;;6.97;;
30888;SDS011;51092;50.874;7.024;2022-09-27T04:09:13;11.20;;;6.95;;
30888;SDS011;51092;50.874;7.024;2022-09-27T04:10:15;13.20;;;8.20;;
30888;SDS011;51092;50.874;7.024;2022-09-27T04:11:17;13.75;;;6.93;;
30888;SDS011;51092;50.874;7.024;2022-09-27T04:12:19;13.18;;;8.93;;
30888;SDS011;51092;50.874;7.024;2022-09-27T04:13:22;13.20;;;7.95;;
30888;SDS011;51092;50.874;7.024;2022-09-27T04:14:23;14.45;;;8.38;;
30888;SDS011;51092;50.874;7.024;2022-09-27T04:15:26;13.45;;;8.00;;
30888;SDS011;51092;50.874;7.024;2022-09-27T04:16:28;13.70;;;7.53;;
30888;SDS011;51092;50.874;7.024;2022-09-27T04:17:31;16.55;;;7.53;;
30888;SDS011;51092;50.874;7.024;2022-09-27T04:18:33;13.07;;;6.90;;
30888;SDS011;51092;50.874;7.024;2022-09-27T04:19:36;10.90;;;6.82;;
30888;SDS011;51092;50.874;7.024;2022-09-27T04:20:37;10.02;;;6.28;;
30888;SDS011;51092;50.874;7.024;2022-09-27T04:21:41;6.85;;;5.93;;
30888;SDS011;51092;50.874;7.024;2022-09-27T04:22:43;9.82;;;7.65;;
30888;SDS011;51092;50.874;7.024;2022-09-27T04:23:46;12.50;;;5.70;;
30888;SDS011;51092;50.874;7.024;2022-09-27T04:24:47;8.40;;;5.75;;
30888;SDS011;51092;50.874;7.024;2022-09-27T04:25:50;10.27;;;5.85;;
30888;SDS011;51092;50.874;7.024;2022-09-27T04:26:52;10.30;;;5.55;;
30888;SDS011;51092;50.874;7.024;2022-09-27T04:27:54;14.90;;;5.80;;
30888;SDS011;51092;50.874;7.024;2022-09-27T04:28:56;8.98;;;4.63;;
30888;SDS011;51092;50.874;7.024;2022-09-27T04:29:59;9.25;;;4.90;;
30888;SDS011;51092;50.874;7.024;2022-09-27T04:31:01;7.90;;;4.13;;
30888;SDS011;51092;50.874;7.024;2022-09-27T04:32:03;11.10;;;4.82;;
30888;SDS011;51092;50.874;7.024;2022-09-27T04:33:06;14.02;;;4.43;;
30888;SDS011;51092;50.874;7.024;2022-09-27T04:34:08;6.47;;;3.75;;
30888;SDS011;51092;50.874;7.024;2022-09-27T04:35:10;8.23;;;3.47;;
30888;SDS011;51092;50.874;7.024;2022-09-27T04:36:33;8.20;;;3.95;;
30888;SDS011;51092;50.874;7.024;2022-09-27T04:37:37;7.00;;;3.65;;
30888;SDS011;51092;50.874;7.024;2022-09-27T04:38:38;8.18;;;3.45;;
30888;SDS011;51092;50.874;7.024;2022-09-27T04:39:41;8.75;;;3.17;;
30888;SDS011;51092;50.874;7.024;2022-09-27T04:40:42;6.97;;;3.53;;
30888;SDS011;51092;50.874;7.024;2022-09-27T04:41:45;9.15;;;3.60;;
30888;SDS011;51092;50.874;7.024;2022-09-27T04:42:47;8.05;;;3.95;;
30888;SDS011;51092;50.874;7.024;2022-09-27T04:43:50;5.28;;;3.15;;
30888;SDS011;51092;50.874;7.024;2022-09-27T04:44:52;7.63;;;3.53;;
30888;SDS011;51092;50.874;7.024;2022-09-27T04:45:54;9.13;;;3.90;;
30888;SDS011;51092;50.874;7.024;2022-09-27T04:46:56;8.00;;;3.33;;
30888;SDS011;51092;50.874;7.024;2022-09-27T04:47:59;11.25;;;3.13;;
30888;SDS011;51092;50.874;7.024;2022-09-27T04:49:01;13.88;;;4.82;;
30888;SDS011;51092;50.874;7.024;2022-09-27T04:50:04;5.05;;;3.38;;
30888;SDS011;51092;50.874;7.024;2022-09-27T04:51:06;8.68;;;4.57;;
30888;SDS011;51092;50.874;7.024;2022-09-27T04:52:08;11.98;;;4.72;;
30888;SDS011;51092;50.874;7.024;2022-09-27T04:53:13;8.77;;;4.53;;
30888;SDS011;51092;50.874;7.024;2022-09-27T04:54:15;12.15;;;6.40;;
30888;SDS011;51092;50.874;7.024;2022-09-27T04:55:17;6.50;;;4.97;;
30888;SDS011;51092;50.874;7.024;2022-09-27T04:56:21;10.68;;;5.70;;
30888;SDS011;51092;50.874;7.024;2022-09-27T04:57:23;16.65;;;6.65;;
30888;SDS011;51092;50.874;7.024;2022-09-27T04:58:25;15.30;;;7.43;;
30888;SDS011;51092;50.874;7.024;2022-09-27T04:59:29;14.63;;;7.22;;
30888;SDS011;51092;50.874;7.024;2022-09-27T05:00:30;8.38;;;6.47;;
30888;SDS011;51092;50.874;7.024;2022-09-27T05:01:33;15.15;;;9.73;;
30888;SDS011;51092;50.874;7.024;2022-09-27T05:02:35;11.65;;;8.18;;
30888;SDS011;51092;50.874;7.024;2022-09-27T05:03:39;16.92;;;10.15;;
30888;SDS011;51092;50.874;7.024;2022-09-27T05:04:41;14.13;;;9.65;;
30888;SDS011;51092;50.874;7.024;2022-09-27T05:05:44;18.42;;;9.02;;
30888;SDS011;51092;50.874;7.024;2022-09-27T05:06:46;12.23;;;10.35;;
30888;SDS011;51092;50.874;7.024;2022-09-27T05:07:48;17.73;;;9.75;;
30888;SDS011;51092;50.874;7.024;2022-09-27T05:08:51;18.92;;;9.82;;
30888;SDS011;51092;50.874;7.024;2022-09-27T05:09:54;18.20;;;11.15;;
30888;SDS011;51092;50.874;7.024;2022-09-27T05:10:56;13.20;;;10.25;;
30888;SDS011;51092;50.874;7.024;2022-09-27T05:11:59;16.15;;;10.10;;
30888;SDS011;51092;50.874;7.024;2022-09-27T05:13:02;18.60;;;10.63;;
30888;SDS011;51092;50.874;7.024;2022-09-27T05:14:04;19.73;;;10.68;;
30888;SDS011;51092;50.874;7.024;2022-09-27T05:15:07;16.35;;;10.82;;
30888;SDS011;51092;50.874;7.024;2022-09-27T05:16:13;16.40;;;10.30;;
30888;SDS011;51092;50.874;7.024;2022-09-27T05:17:15;17.85;;;11.27;;
30888;SDS011;51092;50.874;7.024;2022-09-27T05:18:18;13.88;;;10.43;;
30888;SDS011;51092;50.874;7.024;2022-09-27T05:19:20;15.95;;;9.25;;
30888;SDS011;51092;50.874;7.024;2022-09-27T05:20:23;13.57;;;9.50;;
30888;SDS011;51092;50.874;7.024;2022-09-27T05:21:25;12.52;;;8.57;;
30888;SDS011;51092;50.874;7.024;2022-09-27T05:22:28;16.73;;;9.00;;
30888;SDS011;51092;50.874;7.024;2022-09-27T05:23:29;13.00;;;8.48;;
30888;SDS011;51092;50.874;7.024;2022-09-27T05:24:33;13.15;;;8.68;;
30888;SDS011;51092;50.874;7.024;2022-09-27T05:25:35;13.60;;;8.77;;
30888;SDS011;51092;50.874;7.024;2022-09-27T05:26:38;15.35;;;8.70;;
30888;SDS011;51092;50.874;7.024;2022-09-27T05:27:41;14.80;;;9.15;;
30888;SDS011;51092;50.874;7.024;2022-09-27T05:28:43;13.18;;;9.10;;
30888;SDS011;51092;50.874;7.024;2022-09-27T05:29:47;16.35;;;9.10;;
30888;SDS011;51092;50.874;7.024;2022-09-27T05:30:48;11.88;;;7.57;;
30888;SDS011;51092;50.874;7.024;2022-09-27T05:31:51;10.63;;;7.47;;
30888;SDS011;51092;50.874;7.024;2022-09-27T05:32:53;17.80;;;9.27;;
30888;SDS011;51092;50.874;7.024;2022-09-27T05:33:56;11.85;;;6.65;;
30888;SDS011;51092;50.874;7.024;2022-09-27T05:34:57;11.20;;;6.88;;
30888;SDS011;51092;50.874;7.024;2022-09-27T05:36:00;10.90;;;6.65;;
30888;SDS011;51092;50.874;7.024;2022-09-27T05:37:02;9.43;;;6.05;;
30888;SDS011;51092;50.874;7.024;2022-09-27T05:38:04;10.52;;;4.30;;
30888;SDS011;51092;50.874;7.024;2022-09-27T05:39:06;7.43;;;3.88;;
30888;SDS011;51092;50.874;7.024;2022-09-27T05:40:10;9.90;;;3.55;;
30888;SDS011;51092;50.874;7.024;2022-09-27T05:41:12;7.93;;;3.42;;
30888;SDS011;51092;50.874;7.024;2022-09-27T05:42:15;10.90;;;3.53;;
30888;SDS011;51092;50.874;7.024;2022-09-27T05:43:17;7.03;;;3.20;;
30888;SDS011;51092;50.874;7.024;2022-09-27T05:44:21;4.22;;;2.67;;
30888;SDS011;51092;50.874;7.024;2022-09-27T05:45:23;7.45;;;2.65;;
30888;SDS011;51092;50.874;7.024;2022-09-27T05:46:26;8.85;;;2.40;;
30888;SDS011;51092;50.874;7.024;2022-09-27T05:47:27;8.07;;;3.20;;
30888;SDS011;51092;50.874;7.024;2022-09-27T05:48:30;11.82;;;4.07;;
30888;SDS011;51092;50.874;7.024;2022-09-27T05:49:32;6.53;;;3.80;;
30888;SDS011;51092;50.874;7.024;2022-09-27T05:50:34;13.57;;;5.13;;
30888;SDS011;51092;50.874;7.024;2022-09-27T05:51:36;9.82;;;5.68;;
30888;SDS011;51092;50.874;7.024;2022-09-27T05:52:39;9.32;;;5.22;;
30888;SDS011;51092;50.874;7.024;2022-09-27T05:53:40;8.40;;;5.70;;
30888;SDS011;51092;50.874;7.024;2022-09-27T05:54:43;10.98;;;7.00;;
30888;SDS011;51092;50.874;7.024;2022-09-27T05:55:46;13.50;;;6.88;;
30888;SDS011;51092;50.874;7.024;2022-09-27T05:56:49;15.23;;;6.18;;
30888;SDS011;51092;50.874;7.024;2022-09-27T05:57:54;11.73;;;6.72;;
30888;SDS011;51092;50.874;7.024;2022-09-27T05:58:58;9.57;;;6.45;;
30888;SDS011;51092;50.874;7.024;2022-09-27T06:00:00;14.60;;;6.72;;
30888;SDS011;51092;50.874;7.024;2022-09-27T06:01:04;13.27;;;6.63;;
30888;SDS011;51092;50.874;7.024;2022-09-27T06:02:08;15.05;;;6.82;;
30888;SDS011;51092;50.874;7.024;2022-09-27T06:03:10;16.67;;;6.68;;
30888;SDS011;51092;50.874;7.024;2022-09-27T06:04:13;15.27;;;7.80;;
30888;SDS011;51092;50.874;7.024;2022-09-27T06:05:15;10.65;;;6.70;;
30888;SDS011;51092;50.874;7.024;2022-09-27T06:06:18;12.93;;;6.75;;
30888;SDS011;51092;50.874;7.024;2022-09-27T06:07:19;11.75;;;7.93;;
30888;SDS011;51092;50.874;7.024;2022-09-27T06:08:21;14.00;;;7.50;;
30888;SDS011;51092;50.874;7.024;2022-09-27T06:09:23;9.98;;;6.43;;
30888;SDS011;51092;50.874;7.024;2022-09-27T06:10:26;10.50;;;6.00;;
30888;SDS011;51092;50.874;7.024;2022-09-27T06:11:29;12.13;;;6.05;;
30888;SDS011;51092;50.874;7.024;2022-09-27T06:12:32;9.60;;;5.68;;
30888;SDS011;51092;50.874;7.024;2022-09-27T06:13:34;10.90;;;5.95;;
30888;SDS011;51092;50.874;7.024;2022-09-27T06:14:37;7.85;;;4.35;;
30888;SDS011;51092;50.874;7.024;2022-09-27T06:15:40;9.85;;;3.97;;
30888;SDS011;51092;50.874;7.024;2022-09-27T06:16:44;7.65;;;4.03;;
30888;SDS011;51092;50.874;7.024;2022-09-27T06:17:46;7.07;;;3.22;;
30888;SDS011;51092;50.874;7.024;2022-09-27T06:18:48;9.70;;;3.28;;
30888;SDS011;51092;50.874;7.024;2022-09-27T06:19:50;10.00;;;2.80;;
30888;SDS011;51092;50.874;7.024;2022-09-27T06:20:53;5.50;;;2.33;;
30888;SDS011;51092;50.874;7.024;2022-09-27T06:21:55;4.65;;;2.08;;
30888;SDS011;51092;50.874;7.024;2022-09-27T06:23:02;4.43;;;2.00;;
30888;SDS011;51092;50.874;7.024;2022-09-27T06:24:05;5.60;;;1.95;;
30888;SDS011;51092;50.874;7.024;2022-09-27T06:25:07;7.18;;;2.20;;
30888;SDS011;51092;50.874;7.024;2022-09-27T06:26:09;5.93;;;2.13;;
30888;SDS011;51092;50.874;7.024;2022-09-27T06:27:13;7.18;;;2.58;;
30888;SDS011;51092;50.874;7.024;2022-09-27T06:28:15;7.43;;;2.30;;